createdAt,value
2023-01-26T06:31:37.994Z,12.73
2023-01-26T06:34:06.000Z,11.68
2023-01-26T06:36:33.221Z,12.65
2023-01-26T06:39:01.076Z,10.90
2023-01-26T06:41:28.468Z,11.95
2023-01-26T06:43:55.638Z,10.10
2023-01-26T06:46:23.172Z,12.10
2023-01-26T06:48:50.476Z,12.85
2023-01-26T06:51:24.745Z,10.52
2023-01-26T06:53:53.783Z,10.63
2023-01-26T06:56:21.913Z,11.20
2023-01-26T06:58:49.806Z,10.35
2023-01-26T07:01:21.412Z,11.45
2023-01-26T07:03:49.655Z,12.32
2023-01-26T07:06:16.919Z,12.90
2023-01-26T07:08:44.625Z,10.35
2023-01-26T07:11:13.202Z,12.13
2023-01-26T07:13:41.130Z,11.10
2023-01-26T07:16:12.494Z,10.50
2023-01-26T07:18:41.006Z,12.45
2023-01-26T07:21:12.095Z,12.57
2023-01-26T07:23:39.529Z,11.13
2023-01-26T07:26:07.262Z,9.77
2023-01-26T07:28:34.601Z,10.80
2023-01-26T07:31:03.372Z,12.60
2023-01-26T07:33:32.203Z,11.27
2023-01-26T07:36:00.358Z,12.95
2023-01-26T07:38:29.073Z,10.90
2023-01-26T07:40:57.322Z,11.20
2023-01-26T07:43:24.707Z,10.68
2023-01-26T07:45:54.379Z,9.43
2023-01-26T07:48:24.270Z,9.40
2023-01-26T07:50:51.863Z,8.85
2023-01-26T07:53:19.930Z,8.93
2023-01-26T07:55:47.438Z,9.00
2023-01-26T07:58:14.726Z,10.13
2023-01-26T08:00:42.051Z,9.13
2023-01-26T08:03:09.497Z,10.73
2023-01-26T08:05:38.609Z,10.27
2023-01-26T08:08:06.308Z,9.65
2023-01-26T08:10:33.568Z,10.15
2023-01-26T08:13:21.040Z,10.02
2023-01-26T08:15:54.406Z,9.35
2023-01-26T08:18:22.299Z,9.93
2023-01-26T08:20:53.976Z,8.98
2023-01-26T08:23:21.788Z,9.90
2023-01-26T08:25:49.146Z,8.93
2023-01-26T08:28:16.670Z,9.52
2023-01-26T08:30:44.042Z,9.73
2023-01-26T08:33:11.321Z,10.70
2023-01-26T08:35:38.671Z,9.70
2023-01-26T08:38:06.064Z,8.82
2023-01-26T08:40:33.383Z,9.70
2023-01-26T08:43:02.656Z,9.00
2023-01-26T08:45:33.456Z,11.18
2023-01-26T08:48:00.703Z,10.13
2023-01-26T08:50:27.992Z,10.15
2023-01-26T08:52:56.717Z,10.60
2023-01-26T08:55:24.475Z,10.48
2023-01-26T08:57:55.217Z,10.38
2023-01-26T09:00:24.038Z,9.85
2023-01-26T09:03:00.746Z,9.27
2023-01-26T09:05:34.311Z,10.50
2023-01-26T09:08:05.789Z,9.55
2023-01-26T09:10:41.459Z,11.27
2023-01-26T09:13:10.399Z,9.70
2023-01-26T09:15:39.490Z,9.73
2023-01-26T09:18:07.256Z,10.40
2023-01-26T09:20:34.644Z,9.35
2023-01-26T09:23:02.420Z,8.50
2023-01-26T09:25:31.101Z,9.77
2023-01-26T09:27:58.622Z,9.20
2023-01-26T09:30:26.223Z,10.00
2023-01-26T09:33:00.051Z,10.27
2023-01-26T09:35:30.978Z,10.57
2023-01-26T09:37:58.848Z,10.05
2023-01-26T09:40:51.637Z,9.48
2023-01-26T09:43:34.200Z,10.43
2023-01-26T09:46:41.359Z,9.38
2023-01-26T09:49:19.049Z,8.52
2023-01-26T09:52:00.447Z,9.20
2023-01-26T09:54:43.785Z,11.00
2023-01-26T09:57:16.337Z,8.30
2023-01-26T09:59:58.921Z,9.40
2023-01-26T10:02:53.758Z,10.30
2023-01-26T10:05:44.254Z,9.95
2023-01-26T10:08:14.180Z,10.45
2023-01-26T10:10:48.850Z,10.05
2023-01-26T10:13:17.909Z,9.35
2023-01-26T10:15:51.839Z,8.90
2023-01-26T10:18:26.316Z,9.52
2023-01-26T10:20:57.075Z,8.75
2023-01-26T10:23:30.583Z,11.73
2023-01-26T10:26:11.520Z,7.90
2023-01-26T10:28:42.729Z,9.35
2023-01-26T10:31:19.717Z,9.20
2023-01-26T10:33:58.937Z,9.30
2023-01-26T10:36:32.116Z,9.02
2023-01-26T10:39:11.086Z,8.57
2023-01-26T10:41:39.688Z,9.90
2023-01-26T10:47:08.751Z,9.15
2023-01-26T10:49:36.564Z,8.57
2023-01-26T10:52:23.625Z,7.45
2023-01-26T10:55:13.478Z,8.10
2023-01-26T10:57:59.418Z,7.95
2023-01-26T11:00:30.773Z,7.47
2023-01-26T11:03:07.000Z,7.30
2023-01-26T11:05:35.704Z,7.78
2023-01-26T11:08:07.224Z,9.25
2023-01-26T11:10:39.011Z,7.13
2023-01-26T11:13:19.760Z,8.07
2023-01-26T11:16:03.876Z,6.95
2023-01-26T11:18:57.304Z,7.38
2023-01-26T11:21:32.736Z,7.85
2023-01-26T11:24:13.234Z,7.20
2023-01-26T11:27:20.796Z,7.93
2023-01-26T11:30:22.965Z,6.45
2023-01-26T11:33:13.090Z,6.68
2023-01-26T11:35:57.703Z,6.97
2023-01-26T11:38:43.559Z,6.75
2023-01-26T11:41:38.123Z,7.53
2023-01-26T11:44:25.711Z,6.80
2023-01-26T11:47:29.198Z,7.75
2023-01-26T11:52:57.180Z,6.78
2023-01-26T11:55:53.816Z,8.32
2023-01-26T11:58:36.807Z,8.05
2023-01-26T12:03:52.275Z,6.55
2023-01-26T12:06:30.218Z,7.80
2023-01-26T12:09:04.756Z,7.43
2023-01-26T12:11:44.508Z,8.88
2023-01-26T12:14:20.393Z,7.25
2023-01-26T12:19:48.211Z,7.57
2023-01-26T12:22:34.229Z,7.18
2023-01-26T12:25:27.203Z,8.07
2023-01-26T12:31:06.828Z,7.97
2023-01-26T12:33:35.953Z,7.13
2023-01-26T12:36:43.420Z,7.53
2023-01-26T12:39:36.592Z,7.15
2023-01-26T12:42:45.088Z,7.15
2023-01-26T12:45:18.659Z,6.72
2023-01-26T12:48:08.454Z,9.43
2023-01-26T12:53:31.517Z,8.02
2023-01-26T12:56:25.939Z,5.97
2023-01-26T12:58:55.943Z,5.93
2023-01-26T13:01:26.947Z,5.78
2023-01-26T13:03:58.634Z,6.40
2023-01-26T13:06:28.243Z,5.80
2023-01-26T13:09:24.955Z,8.23
2023-01-26T13:11:59.106Z,6.18
2023-01-26T13:14:33.856Z,6.70
2023-01-26T13:17:23.903Z,7.05
2023-01-26T13:19:54.660Z,7.82
2023-01-26T13:22:30.709Z,8.55
2023-01-26T13:25:12.336Z,8.60
2023-01-26T13:30:42.534Z,7.78
2023-01-26T13:33:16.523Z,8.15
2023-01-26T13:35:46.425Z,8.23
2023-01-26T13:38:42.782Z,8.65
2023-01-26T13:41:19.515Z,10.20
2023-01-26T13:43:53.503Z,9.02
2023-01-26T13:46:45.360Z,8.48
2023-01-26T13:49:41.229Z,8.15
2023-01-26T13:52:28.227Z,8.00
2023-01-26T13:54:57.980Z,7.97
2023-01-26T13:57:27.622Z,8.15
2023-01-26T13:59:59.076Z,8.70
2023-01-26T14:02:32.207Z,8.02
2023-01-26T14:05:01.646Z,9.05
2023-01-26T14:07:34.760Z,8.02
2023-01-26T14:10:03.032Z,9.20
2023-01-26T14:12:35.899Z,9.02
2023-01-26T14:15:07.350Z,9.55
2023-01-26T14:17:37.388Z,7.70
2023-01-26T14:20:30.920Z,7.53
2023-01-26T14:23:19.000Z,7.15
2023-01-26T14:25:56.270Z,8.23
2023-01-26T14:28:28.432Z,7.57
2023-01-26T14:31:01.770Z,7.00
2023-01-26T14:33:29.582Z,8.50
2023-01-26T14:35:59.905Z,7.30
2023-01-26T14:38:29.572Z,8.15
2023-01-26T14:40:59.839Z,7.78
2023-01-26T14:43:27.830Z,8.63
2023-01-26T14:48:41.205Z,8.63
2023-01-26T14:53:50.364Z,8.07
2023-01-26T14:56:20.006Z,7.45
2023-01-26T14:58:51.878Z,7.30
2023-01-26T15:01:23.138Z,9.13
2023-01-26T15:03:56.323Z,8.23
2023-01-26T15:06:28.353Z,8.40
2023-01-26T15:09:01.060Z,7.68
2023-01-26T15:11:53.833Z,9.05
2023-01-26T15:14:35.624Z,8.73
2023-01-26T15:17:04.077Z,9.48
2023-01-26T15:19:38.936Z,9.35
2023-01-26T15:22:16.757Z,9.63
2023-01-26T15:24:45.274Z,7.50
2023-01-26T15:27:12.751Z,9.18
2023-01-26T15:29:39.899Z,9.48
2023-01-26T15:32:07.069Z,8.63
2023-01-26T15:34:37.471Z,10.10
2023-01-26T15:37:29.170Z,9.48
2023-01-26T15:39:56.381Z,8.02
2023-01-26T15:42:31.156Z,8.75
2023-01-26T15:44:58.503Z,8.63
2023-01-26T15:47:25.666Z,9.40
2023-01-26T15:49:53.136Z,9.00
2023-01-26T15:52:25.474Z,9.90
2023-01-26T15:54:53.969Z,8.13
2023-01-26T15:57:21.299Z,8.80
2023-01-26T15:59:48.454Z,8.48
2023-01-26T16:02:18.681Z,10.10
2023-01-26T16:04:46.191Z,9.80
2023-01-26T16:07:16.184Z,9.55
2023-01-26T16:09:43.739Z,11.27
2023-01-26T16:12:30.592Z,11.45
2023-01-26T16:14:58.596Z,11.30
2023-01-26T16:17:25.812Z,10.88
2023-01-26T16:19:53.009Z,11.40
2023-01-26T16:22:20.412Z,13.50
2023-01-26T16:24:47.597Z,14.07
2023-01-26T16:27:14.768Z,13.43
2023-01-26T16:29:42.352Z,13.13
2023-01-26T16:32:30.779Z,12.65
2023-01-26T16:34:58.010Z,12.95
2023-01-26T16:37:25.392Z,13.07
2023-01-26T16:39:52.597Z,12.82
2023-01-26T16:42:22.472Z,11.85
2023-01-26T16:44:49.999Z,12.63
2023-01-26T16:47:17.690Z,13.65
2023-01-26T16:49:44.944Z,13.40
2023-01-26T16:52:12.278Z,12.90
2023-01-26T16:54:39.495Z,13.50
2023-01-26T16:57:08.368Z,13.05
2023-01-26T16:59:42.585Z,13.27
